Time;durP1;ratioP1;P1;durP2;ratioP2;P2;SDS_P1;SDS_P2;PMS_P1;PMS_P2;Temp;Humidity;BMP_temperature;BMP_pressure;BME280_temperature;BME280_humidity;BME280_pressure;Samples;Min_cycle;Max_cycle;Signal;HPM_P1;HPM_P2
2021/01/06 00:01:21;;;;;;;1.47;1.37;;;2.60;99.90;;;;;;5048992;28;20186;-81
2021/01/06 00:03:48;;;;;;;1.50;1.40;;;2.60;99.90;;;;;;5047161;28;20190;-81
2021/01/06 00:06:15;;;;;;;0.87;0.83;;;2.70;99.90;;;;;;5048601;28;20182;-78
2021/01/06 00:08:42;;;;;;;1.47;1.00;;;2.70;99.90;;;;;;5048603;28;20190;-79
2021/01/06 00:11:09;;;;;;;2.17;1.93;;;2.70;99.90;;;;;;5063772;28;20221;-81
2021/01/06 00:13:35;;;;;;;1.30;1.20;;;2.60;99.90;;;;;;5046965;28;20641;-82
2021/01/06 00:16:00;;;;;;;1.03;0.90;;;2.70;99.90;;;;;;5047004;28;20210;-79
2021/01/06 00:18:27;;;;;;;2.07;1.80;;;2.70;99.90;;;;;;5064197;28;20193;-80
2021/01/06 00:20:54;;;;;;;2.10;1.27;;;2.60;99.90;;;;;;5048293;28;20220;-79
2021/01/06 00:23:20;;;;;;;1.10;0.97;;;2.60;99.90;;;;;;5064238;28;20186;-79
2021/01/06 00:25:46;;;;;;;1.57;1.07;;;2.60;99.90;;;;;;5049183;28;20285;-79
2021/01/06 00:28:13;;;;;;;1.10;1.00;;;2.70;99.90;;;;;;5049593;28;20197;-77
2021/01/06 00:30:55;;;;;;;1.03;0.90;;;2.60;99.90;;;;;;5047993;28;20203;-79
2021/01/06 00:33:23;;;;;;;1.20;1.00;;;2.70;99.90;;;;;;5049442;28;20251;-82
2021/01/06 00:35:55;;;;;;;1.57;0.77;;;2.70;99.90;;;;;;5049232;28;20202;-80
2021/01/06 00:38:20;;;;;;;1.13;1.03;;;2.70;99.90;;;;;;5049363;28;20206;-79
2021/01/06 00:40:46;;;;;;;0.93;0.80;;;2.70;99.90;;;;;;5049467;28;20245;-79
2021/01/06 00:43:14;;;;;;;2.30;1.97;;;2.60;99.90;;;;;;5047622;28;20186;-79
2021/01/06 00:45:40;;;;;;;1.30;1.20;;;2.60;99.90;;;;;;5047351;28;20293;-79
2021/01/06 00:48:06;;;;;;;1.03;0.77;;;2.60;99.90;;;;;;5047964;28;20278;-80
2021/01/06 00:50:32;;;;;;;1.53;1.33;;;2.60;99.90;;;;;;5045731;28;20209;-80
2021/01/06 00:53:23;;;;;;;1.40;1.30;;;2.60;99.90;;;;;;5047195;28;20300;-81
2021/01/06 00:55:53;;;;;;;3.97;1.73;;;2.60;99.90;;;;;;5046706;28;20305;-81
2021/01/06 00:58:20;;;;;;;2.57;1.87;;;2.60;99.90;;;;;;5047412;28;20278;-80
2021/01/06 01:00:46;;;;;;;4.37;1.87;;;2.70;99.90;;;;;;5046898;28;20183;-79
2021/01/06 01:03:12;;;;;;;1.50;1.20;;;2.60;99.90;;;;;;5048806;28;20198;-79
2021/01/06 01:05:38;;;;;;;1.80;1.53;;;2.60;99.90;;;;;;5049028;28;20214;-81
2021/01/06 01:08:07;;;;;;;1.13;1.00;;;2.60;99.90;;;;;;5047598;28;20183;-80
2021/01/06 01:10:52;;;;;;;1.07;0.97;;;2.50;99.90;;;;;;5047169;28;20193;-79
2021/01/06 01:13:23;;;;;;;1.67;1.57;;;2.50;99.90;;;;;;5048765;28;20664;-80
2021/01/06 01:15:52;;;;;;;0.93;0.80;;;2.50;99.90;;;;;;5047202;28;20550;-80
2021/01/06 01:18:21;;;;;;;0.73;0.73;;;2.60;99.90;;;;;;5046292;28;20674;-81
2021/01/06 01:20:52;;;;;;;1.27;1.07;;;2.60;99.90;;;;;;5047801;28;20269;-80
2021/01/06 01:23:20;;;;;;;1.13;1.03;;;2.50;99.90;;;;;;5048134;28;20190;-79
2021/01/06 01:25:47;;;;;;;1.00;0.90;;;2.50;99.90;;;;;;5064033;28;20202;-79
2021/01/06 01:28:13;;;;;;;1.10;0.90;;;2.50;99.90;;;;;;5047819;28;20186;-79
2021/01/06 01:30:39;;;;;;;0.57;0.50;;;2.40;99.90;;;;;;5046704;28;20727;-79
2021/01/06 01:33:05;;;;;;;1.80;1.67;;;2.40;99.90;;;;;;5047810;28;20202;-78
2021/01/06 01:35:32;;;;;;;0.73;0.67;;;2.50;99.90;;;;;;5046578;28;20206;-79
2021/01/06 01:38:00;;;;;;;1.20;1.10;;;2.40;99.90;;;;;;5045951;28;20221;-78
2021/01/06 01:40:38;;;;;;;1.43;1.10;;;2.40;99.90;;;;;;5046913;28;20186;-79
2021/01/06 01:43:13;;;;;;;1.20;1.03;;;2.40;99.90;;;;;;5045830;28;20186;-81
2021/01/06 01:45:44;;;;;;;0.77;0.77;;;2.50;99.90;;;;;;5047228;28;20213;-82
2021/01/06 01:48:33;;;;;;;2.23;1.40;;;2.50;99.90;;;;;;5047452;28;20332;-81
2021/01/06 01:51:17;;;;;;;1.20;1.07;;;2.50;99.90;;;;;;5038324;28;20202;-82
2021/01/06 01:53:45;;;;;;;0.97;0.93;;;2.40;99.90;;;;;;5046907;28;20288;-81
2021/01/06 01:56:12;;;;;;;0.80;0.70;;;2.40;99.90;;;;;;5044617;28;20209;-82
2021/01/06 01:58:41;;;;;;;1.57;1.20;;;2.40;99.90;;;;;;5045734;28;20190;-83
2021/01/06 02:01:09;;;;;;;1.57;1.30;;;2.40;99.90;;;;;;5045779;28;20258;-81
2021/01/06 02:03:41;;;;;;;1.40;1.17;;;2.30;99.90;;;;;;5061413;28;20182;-79
2021/01/06 02:06:16;;;;;;;0.97;0.87;;;2.40;99.90;;;;;;5044998;28;20182;-80
2021/01/06 02:08:53;;;;;;;1.23;1.13;;;2.40;99.90;;;;;;5046326;28;20291;-78
2021/01/06 02:11:28;;;;;;;1.67;1.27;;;2.40;99.90;;;;;;5046363;28;20552;-79
2021/01/06 02:13:59;;;;;;;1.47;1.00;;;2.40;99.90;;;;;;5047057;28;20201;-79
2021/01/06 02:17:04;;;;;;;1.27;1.10;;;2.40;99.90;;;;;;5044960;28;20191;-80
2021/01/06 02:19:34;;;;;;;0.80;0.80;;;2.40;99.90;;;;;;5045786;28;20181;-80
2021/01/06 02:22:00;;;;;;;1.00;0.90;;;2.40;99.90;;;;;;5045652;28;20186;-80
2021/01/06 02:24:27;;;;;;;1.60;0.80;;;2.40;99.90;;;;;;5043671;28;20783;-80
2021/01/06 02:26:53;;;;;;;0.90;0.63;;;2.50;99.90;;;;;;5043818;28;20652;-79
2021/01/06 02:29:19;;;;;;;2.13;1.23;;;2.50;99.90;;;;;;5045737;28;20246;-80
2021/01/06 02:31:45;;;;;;;1.03;0.90;;;2.50;99.90;;;;;;5044545;28;21185;-79
2021/01/06 02:34:11;;;;;;;1.43;0.73;;;2.40;99.90;;;;;;5045653;28;20210;-78
2021/01/06 02:36:37;;;;;;;1.57;1.27;;;2.50;99.90;;;;;;5045643;28;20186;-79
2021/01/06 02:39:09;;;;;;;1.30;1.03;;;2.50;99.90;;;;;;5047348;28;20228;-80
2021/01/06 02:41:35;;;;;;;1.50;1.10;;;2.50;99.90;;;;;;5046134;28;20186;-81
2021/01/06 02:44:02;;;;;;;1.50;0.83;;;2.40;99.90;;;;;;5047583;28;20589;-80
2021/01/06 02:46:28;;;;;;;0.80;0.70;;;2.40;99.90;;;;;;5047294;28;20546;-81
2021/01/06 02:48:54;;;;;;;0.70;0.70;;;2.40;99.90;;;;;;5047059;28;20186;-80
2021/01/06 02:51:34;;;;;;;2.67;1.43;;;2.40;99.90;;;;;;5046727;28;20201;-80
2021/01/06 02:54:03;;;;;;;1.73;1.00;;;2.50;99.90;;;;;;5045266;28;20221;-79
2021/01/06 02:56:31;;;;;;;0.70;0.70;;;2.40;99.90;;;;;;5044973;28;20244;-81
2021/01/06 02:59:01;;;;;;;1.30;0.90;;;2.40;99.90;;;;;;5047228;28;20635;-80
2021/01/06 03:01:32;;;;;;;1.37;1.27;;;2.40;99.90;;;;;;5045827;28;20195;-80
2021/01/06 03:03:59;;;;;;;1.43;1.30;;;2.40;99.90;;;;;;5046618;28;20206;-79
2021/01/06 03:06:33;;;;;;;1.43;1.07;;;2.40;99.90;;;;;;5046718;28;20664;-80
2021/01/06 03:09:01;;;;;;;1.03;0.83;;;2.40;99.90;;;;;;5046176;28;20182;-79
2021/01/06 03:11:27;;;;;;;1.00;0.90;;;2.40;99.90;;;;;;5061763;28;20197;-78
2021/01/06 03:13:53;;;;;;;0.90;0.90;;;2.60;99.90;;;;;;5046589;28;20220;-79
2021/01/06 03:16:19;;;;;;;1.07;0.67;;;2.50;99.90;;;;;;5046333;28;20187;-79
2021/01/06 03:18:44;;;;;;;1.87;1.00;;;2.40;99.90;;;;;;5049795;28;20625;-79
2021/01/06 03:21:10;;;;;;;0.93;0.83;;;2.50;99.90;;;;;;5049280;28;20198;-79
2021/01/06 03:23:41;;;;;;;1.13;0.87;;;2.60;99.90;;;;;;5048850;28;20198;-79
2021/01/06 03:26:11;;;;;;;1.10;0.90;;;2.50;99.90;;;;;;5049476;28;20198;-81
2021/01/06 03:28:37;;;;;;;1.10;0.80;;;2.50;99.90;;;;;;5050537;28;20179;-80
2021/01/06 03:31:07;;;;;;;1.20;1.10;;;2.60;99.90;;;;;;5050585;28;20676;-79
2021/01/06 03:33:42;;;;;;;1.60;1.10;;;2.50;99.90;;;;;;5049389;28;20244;-79
2021/01/06 03:36:14;;;;;;;1.27;1.10;;;2.50;99.90;;;;;;5048572;28;20213;-79
2021/01/06 03:38:51;;;;;;;1.00;0.90;;;2.50;99.90;;;;;;5048741;28;20193;-80
2021/01/06 03:41:17;;;;;;;1.63;1.53;;;2.50;99.90;;;;;;5049865;28;20247;-79
2021/01/06 03:43:54;;;;;;;1.07;0.90;;;2.50;99.90;;;;;;5048749;28;20190;-81
2021/01/06 03:46:26;;;;;;;0.90;0.90;;;2.50;99.90;;;;;;5049314;28;20256;-82
2021/01/06 03:49:06;;;;;;;1.87;1.27;;;2.50;99.90;;;;;;5050163;28;20217;-80
2021/01/06 03:51:51;;;;;;;1.40;1.30;;;2.50;99.90;;;;;;5050218;28;20209;-81
2021/01/06 03:54:28;;;;;;;1.67;1.10;;;2.50;99.90;;;;;;5049376;28;20711;-79
2021/01/06 03:56:58;;;;;;;2.73;1.20;;;2.50;99.90;;;;;;5047026;28;20196;-79
2021/01/06 03:59:28;;;;;;;2.50;1.63;;;2.50;99.90;;;;;;5049249;28;20193;-79
2021/01/06 04:02:00;;;;;;;2.97;1.90;;;2.40;99.90;;;;;;5049569;28;20267;-80
2021/01/06 04:04:38;;;;;;;1.80;1.70;;;2.50;99.90;;;;;;5048293;28;20250;-77
2021/01/06 04:07:07;;;;;;;1.40;1.07;;;2.50;99.90;;;;;;5047717;28;20616;-78
2021/01/06 04:09:49;;;;;;;2.50;1.63;;;2.40;99.90;;;;;;5049305;28;20182;-79
2021/01/06 04:12:16;;;;;;;1.23;0.90;;;2.40;99.90;;;;;;5065118;28;20214;-77
2021/01/06 04:14:43;;;;;;;1.77;1.40;;;2.40;99.90;;;;;;5048384;28;20206;-79
2021/01/06 04:17:19;;;;;;;2.43;1.53;;;2.40;99.90;;;;;;5048527;28;20186;-81
2021/01/06 04:19:49;;;;;;;1.40;1.30;;;2.30;99.90;;;;;;5049902;28;20170;-81
2021/01/06 04:22:20;;;;;;;1.47;1.37;;;2.30;99.90;;;;;;5048303;28;20259;-80
2021/01/06 04:24:46;;;;;;;1.13;1.03;;;2.30;99.90;;;;;;5048835;28;20205;-79
2021/01/06 04:27:17;;;;;;;1.57;1.33;;;2.40;99.90;;;;;;5064772;28;20284;-80
2021/01/06 04:29:42;;;;;;;1.53;1.40;;;2.40;99.90;;;;;;5048646;28;20183;-83
2021/01/06 04:32:08;;;;;;;2.93;1.60;;;2.40;99.90;;;;;;5049548;28;20217;-79
2021/01/06 04:34:34;;;;;;;1.83;1.10;;;2.40;99.90;;;;;;5048064;28;20210;-75
2021/01/06 04:36:59;;;;;;;1.53;1.20;;;2.30;99.90;;;;;;5063833;28;20281;-79
2021/01/06 04:39:25;;;;;;;1.90;1.60;;;2.40;99.90;;;;;;5046079;28;20182;-80
2021/01/06 04:41:57;;;;;;;1.77;1.40;;;2.40;99.90;;;;;;5048242;28;20182;-81
2021/01/06 04:44:38;;;;;;;2.30;1.87;;;2.40;99.90;;;;;;5047181;28;20202;-80
2021/01/06 04:47:22;;;;;;;3.23;2.47;;;2.40;99.90;;;;;;5063496;28;20239;-80
2021/01/06 04:50:25;;;;;;;2.13;1.60;;;2.50;99.90;;;;;;5047928;28;20182;-81
2021/01/06 04:53:00;;;;;;;2.63;1.60;;;2.40;99.90;;;;;;5048319;28;20208;-80
2021/01/06 04:55:37;;;;;;;2.73;2.20;;;2.40;99.90;;;;;;5048588;28;20327;-81
2021/01/06 04:58:26;;;;;;;4.00;2.00;;;2.40;99.90;;;;;;5048697;28;20178;-81
2021/01/06 05:01:12;;;;;;;2.33;1.50;;;2.40;99.90;;;;;;5046846;28;20281;-79
2021/01/06 05:03:56;;;;;;;2.33;1.80;;;2.50;99.90;;;;;;5047584;28;20182;-80
2021/01/06 05:06:22;;;;;;;2.57;1.70;;;2.40;99.90;;;;;;5046902;28;20232;-79
2021/01/06 05:08:53;;;;;;;1.53;1.27;;;2.30;99.90;;;;;;5046596;28;20182;-77
2021/01/06 05:11:32;;;;;;;1.97;1.73;;;2.40;99.90;;;;;;5045669;28;20182;-77
2021/01/06 05:14:05;;;;;;;2.43;1.77;;;2.30;99.90;;;;;;5047102;28;20214;-76
2021/01/06 05:16:34;;;;;;;1.70;1.30;;;2.30;99.90;;;;;;5044356;28;20674;-78
2021/01/06 05:19:00;;;;;;;1.70;1.53;;;2.30;99.90;;;;;;5043427;28;20178;-78
2021/01/06 05:21:30;;;;;;;2.53;1.70;;;2.30;99.90;;;;;;5043258;28;20585;-79
2021/01/06 05:24:02;;;;;;;2.10;1.90;;;2.30;99.90;;;;;;5044439;28;20190;-77
2021/01/06 05:26:28;;;;;;;1.97;1.43;;;2.30;99.90;;;;;;5043239;28;20192;-78
2021/01/06 05:28:54;;;;;;;1.17;1.00;;;2.30;99.90;;;;;;5045203;28;20182;-78
2021/01/06 05:31:19;;;;;;;0.80;0.80;;;2.30;99.90;;;;;;5043869;28;20721;-77
2021/01/06 05:33:48;;;;;;;1.50;1.40;;;2.30;99.90;;;;;;5044154;28;20216;-76
2021/01/06 05:36:23;;;;;;;1.43;1.20;;;2.30;99.90;;;;;;5044367;28;20690;-77
2021/01/06 05:38:48;;;;;;;1.13;1.00;;;2.30;99.90;;;;;;5044851;28;20178;-79
2021/01/06 05:41:14;;;;;;;1.33;1.00;;;2.30;99.90;;;;;;5044524;28;20209;-78
2021/01/06 05:43:49;;;;;;;1.93;1.60;;;2.20;99.90;;;;;;5044594;28;20186;-80
2021/01/06 05:46:20;;;;;;;1.50;0.97;;;2.20;99.90;;;;;;5045569;28;20180;-78
2021/01/06 05:49:06;;;;;;;1.83;1.10;;;2.30;99.90;;;;;;5043612;28;20190;-78
2021/01/06 05:51:41;;;;;;;0.87;0.80;;;2.30;99.90;;;;;;5045481;28;20210;-82
2021/01/06 05:54:33;;;;;;;0.73;0.67;;;2.30;99.90;;;;;;5042208;28;20213;-78
2021/01/06 05:57:27;;;;;;;0.93;0.90;;;2.30;99.90;;;;;;5042702;28;20910;-78
2021/01/06 06:00:12;;;;;;;1.20;1.10;;;2.20;99.90;;;;;;5059226;28;20285;-78
2021/01/06 06:02:48;;;;;;;1.70;1.07;;;2.10;99.90;;;;;;5044243;28;20202;-80
2021/01/06 06:05:51;;;;;;;1.63;1.37;;;2.20;99.90;;;;;;5042288;28;20212;-81
2021/01/06 06:08:39;;;;;;;1.40;0.97;;;2.20;99.90;;;;;;5045384;28;20963;-78
2021/01/06 06:11:37;;;;;;;1.40;1.30;;;2.20;99.90;;;;;;5044436;28;20327;-77
2021/01/06 06:14:33;;;;;;;1.20;0.90;;;2.20;99.90;;;;;;5042690;28;20209;-77
2021/01/06 06:17:20;;;;;;;3.70;1.07;;;2.20;99.90;;;;;;5042604;28;20190;-79
2021/01/06 06:20:14;;;;;;;0.97;0.93;;;2.20;99.90;;;;;;5042871;28;20523;-79
2021/01/06 06:22:58;;;;;;;0.87;0.80;;;2.30;99.90;;;;;;5044516;28;20651;-77
2021/01/06 06:25:28;;;;;;;1.03;1.00;;;2.20;99.90;;;;;;5043017;28;20214;-79
2021/01/06 06:28:16;;;;;;;0.73;0.73;;;2.10;99.90;;;;;;5044277;28;20651;-81
2021/01/06 06:31:14;;;;;;;1.03;1.03;;;2.20;99.90;;;;;;5045496;28;20174;-78
2021/01/06 06:33:40;;;;;;;1.23;0.90;;;2.20;99.90;;;;;;5043509;28;20221;-80
2021/01/06 06:36:20;;;;;;;1.40;0.70;;;2.20;99.90;;;;;;5045394;28;20273;-79
2021/01/06 06:38:47;;;;;;;2.63;1.37;;;2.10;99.90;;;;;;5045468;28;20182;-78
2021/01/06 06:41:22;;;;;;;1.83;1.13;;;2.10;99.90;;;;;;5044093;28;20638;-79
2021/01/06 06:44:21;;;;;;;1.77;1.17;;;2.10;99.90;;;;;;5044894;28;20247;-80
2021/01/06 06:46:46;;;;;;;1.17;0.87;;;2.10;99.90;;;;;;5044075;28;20284;-81
2021/01/06 06:49:30;;;;;;;1.33;1.07;;;2.20;99.90;;;;;;5045821;28;20324;-79
2021/01/06 06:52:16;;;;;;;1.17;1.07;;;2.20;99.90;;;;;;5045599;28;20195;-77
2021/01/06 06:54:58;;;;;;;1.23;0.80;;;2.10;99.90;;;;;;5048040;28;20590;-79
2021/01/06 06:57:28;;;;;;;1.20;0.60;;;2.10;99.90;;;;;;5047487;28;20276;-80
2021/01/06 06:59:54;;;;;;;1.13;0.83;;;2.20;99.90;;;;;;5047611;28;20213;-78
2021/01/06 07:02:20;;;;;;;1.20;0.73;;;2.10;99.90;;;;;;5048709;28;20232;-79
2021/01/06 07:05:00;;;;;;;1.60;1.23;;;2.20;99.90;;;;;;5046908;28;20250;-79
2021/01/06 07:07:47;;;;;;;0.80;0.80;;;2.10;99.90;;;;;;5046511;28;20659;-79
2021/01/06 07:10:21;;;;;;;0.67;0.67;;;2.10;99.90;;;;;;5047959;28;20184;-77
2021/01/06 07:12:48;;;;;;;0.67;0.67;;;2.10;99.90;;;;;;5046853;28;20301;-77
2021/01/06 07:15:49;;;;;;;0.50;0.50;;;2.10;99.90;;;;;;5047535;28;20259;-79
2021/01/06 07:18:37;;;;;;;1.40;1.20;;;2.00;99.90;;;;;;5047416;28;20202;-78
2021/01/06 07:21:06;;;;;;;0.90;0.67;;;2.00;99.90;;;;;;5047114;28;20281;-76
2021/01/06 07:23:35;;;;;;;1.80;1.00;;;2.00;99.90;;;;;;5047302;28;20194;-78
2021/01/06 07:26:08;;;;;;;0.83;0.83;;;2.00;99.90;;;;;;5046322;28;20228;-78
2021/01/06 07:28:35;;;;;;;1.67;1.00;;;2.00;99.90;;;;;;5048062;28;20174;-78
2021/01/06 07:31:19;;;;;;;2.60;1.27;;;1.90;99.90;;;;;;5048166;28;20182;-81
2021/01/06 07:33:50;;;;;;;1.60;1.50;;;2.00;99.90;;;;;;5047678;28;20217;-80
2021/01/06 07:36:23;;;;;;;1.47;0.97;;;2.00;99.90;;;;;;5067561;28;20182;-79
2021/01/06 07:38:50;;;;;;;1.83;0.90;;;1.90;99.90;;;;;;5052803;28;20723;-78
2021/01/06 07:41:18;;;;;;;0.60;0.57;;;1.90;99.90;;;;;;5054572;28;20238;-79
2021/01/06 07:44:20;;;;;;;0.90;0.90;;;2.00;99.90;;;;;;5053327;28;20183;-81
2021/01/06 07:47:01;;;;;;;0.70;0.70;;;2.00;99.90;;;;;;5053090;28;20182;-78
2021/01/06 07:49:42;;;;;;;0.77;0.77;;;2.00;99.90;;;;;;5051652;28;20188;-79
2021/01/06 07:52:39;;;;;;;0.73;0.60;;;1.90;99.90;;;;;;5068812;28;20206;-77
2021/01/06 07:55:22;;;;;;;1.70;1.00;;;2.00;99.90;;;;;;5051541;28;20225;-78
2021/01/06 07:58:17;;;;;;;1.47;1.10;;;2.00;99.90;;;;;;5055498;28;20244;-80
2021/01/06 08:00:54;;;;;;;0.60;0.60;;;2.00;99.90;;;;;;5027819;28;20206;-78
2021/01/06 08:03:38;;;;;;;1.50;0.83;;;2.00;99.90;;;;;;5050594;28;20185;-78
2021/01/06 08:06:04;;;;;;;0.93;0.83;;;2.00;99.90;;;;;;5051907;28;20182;-77
2021/01/06 08:08:44;;;;;;;1.23;0.87;;;2.00;99.90;;;;;;5052140;28;20554;-80
2021/01/06 08:11:13;;;;;;;1.47;1.23;;;2.00;99.90;;;;;;5052632;28;20213;-80
2021/01/06 08:14:00;;;;;;;1.00;0.93;;;2.00;99.90;;;;;;5050774;28;20623;-79
2021/01/06 08:16:31;;;;;;;0.93;0.87;;;2.00;99.90;;;;;;5051507;28;20228;-78
2021/01/06 08:19:04;;;;;;;0.77;0.77;;;1.90;99.90;;;;;;5052261;28;20261;-81
2021/01/06 08:21:32;;;;;;;1.17;1.07;;;2.00;99.90;;;;;;5052573;28;21113;-77
2021/01/06 08:24:19;;;;;;;1.23;1.13;;;2.00;99.90;;;;;;5048556;28;20209;-80
2021/01/06 08:26:48;;;;;;;1.77;0.93;;;2.00;99.90;;;;;;5046267;28;20221;-79
2021/01/06 08:29:18;;;;;;;1.27;1.10;;;2.00;99.90;;;;;;5047687;28;20190;-78
2021/01/06 08:31:45;;;;;;;1.03;0.90;;;2.00;99.90;;;;;;5049318;28;20190;-81
2021/01/06 08:34:37;;;;;;;1.47;1.37;;;2.00;99.90;;;;;;5049542;28;20206;-79
2021/01/06 08:37:07;;;;;;;0.70;0.70;;;2.00;99.90;;;;;;5046531;28;20190;-76
2021/01/06 08:39:38;;;;;;;2.43;1.43;;;1.90;99.90;;;;;;5047446;28;20203;-76
2021/01/06 08:42:18;;;;;;;1.90;1.40;;;1.90;99.90;;;;;;5048233;28;20538;-76
2021/01/06 08:45:00;;;;;;;1.77;1.33;;;1.90;99.90;;;;;;5047143;28;20871;-77
2021/01/06 08:47:37;;;;;;;1.73;1.40;;;2.00;99.90;;;;;;5048086;28;20682;-82
2021/01/06 08:50:23;;;;;;;2.80;1.13;;;2.10;99.90;;;;;;5048091;28;20182;-80
2021/01/06 08:53:00;;;;;;;1.83;1.27;;;2.10;99.90;;;;;;5048375;28;20222;-78
2021/01/06 08:55:38;;;;;;;1.20;1.10;;;2.10;99.90;;;;;;5047760;28;20221;-79
2021/01/06 08:58:09;;;;;;;1.37;1.03;;;2.10;99.90;;;;;;5047803;28;20182;-78
2021/01/06 09:01:00;;;;;;;1.50;0.90;;;2.20;99.90;;;;;;5046026;28;20719;-80
2021/01/06 09:03:59;;;;;;;2.33;1.53;;;2.00;99.90;;;;;;5046819;28;20182;-79
2021/01/06 09:06:25;;;;;;;2.00;1.77;;;2.10;99.90;;;;;;5047576;28;20205;-81
2021/01/06 09:09:03;;;;;;;1.50;1.10;;;2.10;99.90;;;;;;5045976;28;20660;-80
2021/01/06 09:11:42;;;;;;;2.50;1.47;;;2.10;99.90;;;;;;5045898;28;20182;-82
2021/01/06 09:14:36;;;;;;;1.33;1.00;;;2.10;99.90;;;;;;5047000;28;20263;-79
2021/01/06 09:17:31;;;;;;;1.87;1.57;;;2.10;99.90;;;;;;5046408;28;20204;-81
2021/01/06 09:20:02;;;;;;;1.73;1.17;;;2.10;99.90;;;;;;5042111;28;20205;-80
2021/01/06 09:22:29;;;;;;;1.17;0.97;;;2.10;99.90;;;;;;5046396;28;20182;-78
2021/01/06 09:24:55;;;;;;;1.80;1.27;;;2.10;99.90;;;;;;5045714;28;20236;-79
2021/01/06 09:27:41;;;;;;;1.53;1.20;;;2.00;99.90;;;;;;5062567;28;20309;-78
2021/01/06 09:30:33;;;;;;;1.30;1.13;;;2.10;99.90;;;;;;5046636;28;20193;-80
2021/01/06 09:33:01;;;;;;;1.40;1.30;;;2.10;99.90;;;;;;5044553;28;20234;-80
2021/01/06 09:35:34;;;;;;;1.03;0.93;;;2.20;99.90;;;;;;5044200;28;20226;-80
2021/01/06 09:38:26;;;;;;;1.53;1.13;;;2.20;99.90;;;;;;5046224;28;20186;-80
2021/01/06 09:40:55;;;;;;;1.53;1.27;;;2.10;99.90;;;;;;5045335;28;20236;-81
2021/01/06 09:43:28;;;;;;;1.23;1.13;;;2.20;99.90;;;;;;5047380;28;21070;-81
2021/01/06 09:45:54;;;;;;;1.73;1.30;;;2.20;99.90;;;;;;5046348;28;20205;-79
2021/01/06 09:48:20;;;;;;;1.50;1.40;;;2.20;99.90;;;;;;5047118;28;20209;-81
2021/01/06 09:50:53;;;;;;;1.33;1.07;;;2.20;99.90;;;;;;5047755;28;20185;-81
2021/01/06 09:53:23;;;;;;;7.90;5.97;;;2.30;99.90;;;;;;5044602;28;20202;-78
2021/01/06 09:55:52;;;;;;;4.10;3.00;;;2.30;99.90;;;;;;5046044;28;20214;-79
2021/01/06 09:58:35;;;;;;;4.37;3.03;;;2.20;99.90;;;;;;5043129;28;20227;-80
2021/01/06 10:01:32;;;;;;;3.60;2.63;;;2.20;99.90;;;;;;5046362;28;20170;-78
2021/01/06 10:04:03;;;;;;;2.20;2.00;;;2.20;99.90;;;;;;5043421;28;20224;-77
2021/01/06 10:06:46;;;;;;;3.13;2.13;;;2.30;99.90;;;;;;5042632;28;20197;-79
2021/01/06 10:09:38;;;;;;;2.97;2.00;;;2.20;99.90;;;;;;5043528;28;20186;-80
2021/01/06 10:12:42;;;;;;;2.63;2.07;;;2.20;99.90;;;;;;5044040;28;20185;-79
2021/01/06 10:15:31;;;;;;;1.67;1.57;;;2.20;99.90;;;;;;5043661;28;20297;-78
2021/01/06 10:18:18;;;;;;;2.50;1.90;;;2.10;99.90;;;;;;5047330;28;20193;-79
2021/01/06 10:20:50;;;;;;;2.17;1.40;;;2.10;99.90;;;;;;5044413;28;20546;-79
2021/01/06 10:23:38;;;;;;;1.43;1.33;;;2.10;99.90;;;;;;5043878;28;20178;-78
2021/01/06 10:26:15;;;;;;;1.40;1.13;;;2.20;99.90;;;;;;5044236;28;20256;-80
2021/01/06 10:28:45;;;;;;;2.37;1.57;;;2.20;99.90;;;;;;5044061;28;20204;-78
2021/01/06 10:31:13;;;;;;;1.37;1.27;;;2.10;99.90;;;;;;5043878;28;20309;-79
2021/01/06 10:34:03;;;;;;;1.13;1.00;;;2.20;99.90;;;;;;5045314;28;20213;-77
2021/01/06 10:36:53;;;;;;;1.47;1.33;;;2.30;99.90;;;;;;5059837;28;20603;-78
2021/01/06 10:39:28;;;;;;;1.37;1.17;;;2.30;99.90;;;;;;5045354;28;20624;-80
2021/01/06 10:42:02;;;;;;;1.23;0.93;;;2.40;99.90;;;;;;5042202;28;20178;-79
2021/01/06 10:44:45;;;;;;;2.57;1.10;;;2.40;99.90;;;;;;5044910;28;20218;-79
2021/01/06 10:47:29;;;;;;;1.23;1.13;;;2.40;99.90;;;;;;5043351;28;20985;-79
2021/01/06 10:49:57;;;;;;;1.67;1.23;;;2.50;99.90;;;;;;5042408;28;20182;-78
2021/01/06 10:52:29;;;;;;;1.57;1.47;;;2.50;99.90;;;;;;5042275;28;20260;-78
2021/01/06 10:55:18;;;;;;;1.87;1.27;;;2.60;99.90;;;;;;5043748;28;20225;-76
2021/01/06 10:57:54;;;;;;;1.13;0.80;;;2.60;99.90;;;;;;5046172;28;20187;-78
2021/01/06 11:00:25;;;;;;;1.17;0.70;;;2.60;99.90;;;;;;5044891;28;20212;-79
2021/01/06 11:03:16;;;;;;;0.87;0.80;;;2.60;99.90;;;;;;5045234;28;20196;-80
2021/01/06 11:05:54;;;;;;;1.03;0.93;;;2.50;99.90;;;;;;5043778;28;20207;-80
2021/01/06 11:08:48;;;;;;;1.47;1.10;;;2.70;99.90;;;;;;5044242;28;20786;-80
2021/01/06 11:11:17;;;;;;;1.30;1.03;;;2.60;99.90;;;;;;5044554;28;20860;-81
2021/01/06 11:14:02;;;;;;;1.47;1.07;;;2.60;99.90;;;;;;5045607;28;20210;-80
2021/01/06 11:16:40;;;;;;;1.37;1.27;;;2.60;99.90;;;;;;5043737;28;20483;-81
2021/01/06 11:19:43;;;;;;;0.87;0.77;;;2.70;99.90;;;;;;5045260;28;20178;-80
2021/01/06 11:22:27;;;;;;;1.03;0.57;;;2.60;99.90;;;;;;5043376;28;20205;-79
2021/01/06 11:24:55;;;;;;;0.50;0.43;;;2.50;99.90;;;;;;5044445;28;20210;-77
2021/01/06 11:27:48;;;;;;;0.60;0.60;;;2.40;99.90;;;;;;5044691;28;20182;-79
2021/01/06 11:30:27;;;;;;;1.67;1.13;;;2.40;99.90;;;;;;5040248;28;20189;-81
2021/01/06 11:33:32;;;;;;;1.67;0.90;;;2.40;99.90;;;;;;5044939;28;20620;-79
2021/01/06 11:36:07;;;;;;;0.60;0.47;;;2.50;99.90;;;;;;4981157;28;20325;-78
2021/01/06 11:38:39;;;;;;;1.17;0.97;;;2.60;99.90;;;;;;4983126;28;20184;-79
2021/01/06 11:41:07;;;;;;;0.80;0.80;;;2.60;99.90;;;;;;5020866;28;20640;-79
2021/01/06 11:43:48;;;;;;;0.87;0.87;;;2.70;99.90;;;;;;5048519;28;20210;-77
2021/01/06 11:46:56;;;;;;;0.97;0.90;;;2.70;99.90;;;;;;5047831;28;20189;-77
2021/01/06 11:49:51;;;;;;;0.93;0.87;;;2.80;99.90;;;;;;5047169;28;20682;-80
2021/01/06 11:52:27;;;;;;;1.97;1.30;;;2.70;99.90;;;;;;4978535;28;20600;-78
2021/01/06 11:54:58;;;;;;;1.37;1.13;;;2.70;99.90;;;;;;5048203;28;20392;-78
2021/01/06 11:57:40;;;;;;;1.30;1.20;;;2.80;99.90;;;;;;5049693;28;20209;-78
2021/01/06 12:00:35;;;;;;;0.97;0.87;;;2.90;99.90;;;;;;5047754;28;20209;-81
2021/01/06 12:03:07;;;;;;;1.30;1.00;;;3.00;99.90;;;;;;5047930;28;20190;-80
2021/01/06 12:05:36;;;;;;;1.53;1.43;;;2.90;99.90;;;;;;5048570;28;21279;-82
2021/01/06 12:08:01;;;;;;;1.90;1.07;;;2.90;99.90;;;;;;5047916;28;20187;-80
2021/01/06 12:10:37;;;;;;;2.13;1.10;;;2.90;99.90;;;;;;5065053;28;20203;-77
2021/01/06 12:13:21;;;;;;;1.43;1.07;;;2.90;99.90;;;;;;5049592;28;20201;-78
2021/01/06 12:16:18;;;;;;;1.63;1.53;;;2.80;99.90;;;;;;5048553;28;20224;-80
2021/01/06 12:19:12;;;;;;;1.30;1.13;;;2.90;99.90;;;;;;5048143;28;20640;-80
2021/01/06 12:22:08;;;;;;;0.77;0.77;;;2.90;99.90;;;;;;5049651;28;20231;-79
2021/01/06 12:24:34;;;;;;;1.20;1.10;;;2.80;99.90;;;;;;5048729;28;20210;-80
2021/01/06 12:27:10;;;;;;;1.60;1.03;;;2.60;99.90;;;;;;5046835;28;20189;-81
2021/01/06 12:29:52;;;;;;;1.33;1.23;;;2.60;99.90;;;;;;5049709;28;20630;-80
2021/01/06 12:32:51;;;;;;;1.20;1.00;;;2.60;99.90;;;;;;5051268;28;20769;-79
2021/01/06 12:35:31;;;;;;;0.83;0.80;;;2.50;99.90;;;;;;5065070;28;20230;-78
2021/01/06 12:38:18;;;;;;;1.00;0.80;;;2.50;99.90;;;;;;5046398;28;20182;-80
2021/01/06 12:41:03;;;;;;;1.03;0.87;;;2.50;99.90;;;;;;5047964;28;20181;-78
2021/01/06 12:43:58;;;;;;;0.70;0.53;;;2.50;99.90;;;;;;5064414;28;20182;-78
2021/01/06 12:46:28;;;;;;;1.47;0.80;;;2.50;99.90;;;;;;5033940;28;20200;-77
2021/01/06 12:48:59;;;;;;;1.03;0.90;;;2.60;99.90;;;;;;5046710;28;20205;-79
2021/01/06 12:51:34;;;;;;;0.57;0.57;;;2.60;99.90;;;;;;5047543;28;20232;-79
2021/01/06 12:54:21;;;;;;;1.40;1.17;;;2.70;99.90;;;;;;5044453;28;20726;-79
2021/01/06 12:57:01;;;;;;;1.10;0.90;;;2.70;99.90;;;;;;5045763;28;20220;-78
2021/01/06 12:59:27;;;;;;;0.77;0.70;;;2.70;99.90;;;;;;5062233;28;20182;-77
2021/01/06 13:01:59;;;;;;;1.20;0.97;;;2.60;99.90;;;;;;5062827;28;20243;-78
2021/01/06 13:04:38;;;;;;;1.97;1.33;;;2.60;99.90;;;;;;5046064;28;20233;-80
2021/01/06 13:07:13;;;;;;;1.20;0.80;;;2.50;99.90;;;;;;5044178;28;20627;-79
2021/01/06 13:09:48;;;;;;;1.37;1.07;;;2.50;99.90;;;;;;5046402;28;20332;-79
2021/01/06 13:12:26;;;;;;;1.00;0.90;;;2.50;99.90;;;;;;5044899;28;20182;-79
2021/01/06 13:15:02;;;;;;;1.23;0.80;;;2.60;99.90;;;;;;5045457;28;20198;-79
2021/01/06 13:17:40;;;;;;;2.20;1.20;;;2.60;99.90;;;;;;5047233;28;20185;-79
2021/01/06 13:20:33;;;;;;;0.87;0.87;;;2.60;99.90;;;;;;5049750;28;20516;-77
2021/01/06 13:23:22;;;;;;;1.27;1.07;;;2.50;99.90;;;;;;5048364;28;20622;-78
2021/01/06 13:25:56;;;;;;;1.00;0.87;;;2.50;99.90;;;;;;5047155;28;20214;-77
2021/01/06 13:28:30;;;;;;;0.77;0.77;;;2.40;99.90;;;;;;5047378;28;20186;-82
2021/01/06 13:31:21;;;;;;;1.40;1.17;;;2.50;99.90;;;;;;5043806;28;20644;-79
2021/01/06 13:34:04;;;;;;;1.73;1.60;;;2.40;99.90;;;;;;5061449;28;20747;-78
2021/01/06 13:36:40;;;;;;;1.27;0.90;;;2.40;99.90;;;;;;5043365;28;20178;-81
2021/01/06 13:39:21;;;;;;;1.73;1.40;;;2.40;99.90;;;;;;5060600;28;20259;-81
2021/01/06 13:41:48;;;;;;;1.47;1.37;;;2.40;99.90;;;;;;5045433;28;20296;-81
2021/01/06 13:44:16;;;;;;;1.13;0.93;;;2.40;99.90;;;;;;5046516;28;20213;-80